Morgan Ray — WDF6085 — position and weather

sailwx.info

Track history (hours):
 
Tides and Currents Weather Stations Pressure Air Temp Water Temp Dewpoint Dewpoint Depression Visibility Wind Speed Wind Dir Waves Ship Positions

Morgan Ray

Owner: Daigle Towing Service LLC., Belle Chasse, LA. More information available from US FCC via Universal Licensing System and Coast Guard Vessel Documentation Center.

Last reported at 2017-Nov-19 21:31 UTC. Time now 2017-Nov-22 01:38 UTC.
Position N 30°15' W 093°15'.

Length 20 m; draft 2 m.

Type: Tug. MMSI: 367470470.

Date/timePositionNaut miles runAvg speedWind from/ knotsBaromVisibWave heightAir tempDewpointWater temp
2017-Nov-19 21:31N 30°15' W 093°15'0 0.1
2017-Nov-19 21:26N 30°15' W 093°15'0 0.0
2017-Nov-19 18:17N 30°15' W 093°15'2 4.8
2017-Nov-19 17:57N 30°13' W 093°15'2 5.3
2017-Nov-19 17:31N 30°12' W 093°17'3 5.5
2017-Nov-19 17:01N 30°10' W 093°19'2 4.5
2017-Nov-19 16:30N 30°08' W 093°20'2 4.1
2017-Nov-19 16:01N 30°06' W 093°19'1 2.9
2017-Nov-19 15:31N 30°05' W 093°18'0 0.5
2017-Nov-19 15:01N 30°05' W 093°17'1 1.6
2017-Nov-19 14:31N 30°05' W 093°17'3 5.4
2017-Nov-19 14:00N 30°02' W 093°15'3 5.9
2017-Nov-19 13:31N 29°60' W 093°13'3 6.6
2017-Nov-19 13:01N 29°57' W 093°11'46 5.9
2017-Nov-19 05:10N 29°50' W 092°18'1 6.6
2017-Nov-19 05:00N 29°49' W 092°17'4 7.1
2017-Nov-19 04:31N 29°48' W 092°14'2 4.0
2017-Nov-19 04:01N 29°47' W 092°11'0 0.2
2017-Nov-19 03:31N 29°47' W 092°12'1 1.7
2017-Nov-19 03:00N 29°47' W 092°11'3 6.6
2017-Nov-19 02:31N 29°47' W 092°07'4 7.4
2017-Nov-19 02:00N 29°49' W 092°03'65 6.9
2017-Nov-18 16:30N 29°32' W 090°50'4 7.7
2017-Nov-18 16:00N 29°32' W 090°46'3 5.8
2017-Nov-18 15:31N 29°34' W 090°43'2 4.9
2017-Nov-18 15:00N 29°36' W 090°43'3 4.8
2017-Nov-18 14:29N 29°36' W 090°40'3 7.2
2017-Nov-18 14:00N 29°35' W 090°36'2 4.5
2017-Nov-18 13:30N 29°34' W 090°34'  
2017-Nov-10 00:46N 29°34' W 090°33'2 6.2
2017-Nov-10 00:29N 29°34' W 090°35'2 4.1
2017-Nov-10 00:00N 29°35' W 090°37'0 0.1
2017-Nov-09 23:11N 29°35' W 090°37'0 0.0
2017-Nov-09 22:58N 29°35' W 090°37'0 0.6
2017-Nov-09 22:30N 29°35' W 090°37'2 4.8
2017-Nov-09 22:00N 29°36' W 090°39'  
Track history (hours):
 
Tides and Currents Weather Stations Pressure Air Temp Water Temp Dewpoint Dewpoint Depression Visibility Wind Speed Wind Dir Waves Ship Positions

Morgan Ray

Owner: Daigle Towing Service LLC., Belle Chasse, LA. More information available from US FCC via Universal Licensing System and Coast Guard Vessel Documentation Center.

Last reported at 2017-Nov-19 21:31 UTC. Time now 2017-Nov-22 01:38 UTC.
Position N 30°15' W 093°15'.

Length 20 m; draft 2 m.

Type: Tug. MMSI: 367470470.

Date/timePositionNaut miles runAvg speedWind from/ knotsBaromVisibWave heightAir tempDewpointWater temp
2017-Nov-19 21:31N 30°15' W 093°15'0 0.1
2017-Nov-19 21:26N 30°15' W 093°15'0 0.0
2017-Nov-19 18:17N 30°15' W 093°15'2 4.8
2017-Nov-19 17:57N 30°13' W 093°15'2 5.3
2017-Nov-19 17:31N 30°12' W 093°17'3 5.5
2017-Nov-19 17:01N 30°10' W 093°19'2 4.5
2017-Nov-19 16:30N 30°08' W 093°20'2 4.1
2017-Nov-19 16:01N 30°06' W 093°19'1 2.9
2017-Nov-19 15:31N 30°05' W 093°18'0 0.5
2017-Nov-19 15:01N 30°05' W 093°17'1 1.6
2017-Nov-19 14:31N 30°05' W 093°17'3 5.4
2017-Nov-19 14:00N 30°02' W 093°15'3 5.9
2017-Nov-19 13:31N 29°60' W 093°13'3 6.6
2017-Nov-19 13:01N 29°57' W 093°11'46 5.9
2017-Nov-19 05:10N 29°50' W 092°18'1 6.6
2017-Nov-19 05:00N 29°49' W 092°17'4 7.1
2017-Nov-19 04:31N 29°48' W 092°14'2 4.0
2017-Nov-19 04:01N 29°47' W 092°11'0 0.2
2017-Nov-19 03:31N 29°47' W 092°12'1 1.7
2017-Nov-19 03:00N 29°47' W 092°11'3 6.6
2017-Nov-19 02:31N 29°47' W 092°07'4 7.4
2017-Nov-19 02:00N 29°49' W 092°03'65 6.9
2017-Nov-18 16:30N 29°32' W 090°50'4 7.7
2017-Nov-18 16:00N 29°32' W 090°46'3 5.8
2017-Nov-18 15:31N 29°34' W 090°43'2 4.9
2017-Nov-18 15:00N 29°36' W 090°43'3 4.8
2017-Nov-18 14:29N 29°36' W 090°40'3 7.2
2017-Nov-18 14:00N 29°35' W 090°36'2 4.5
2017-Nov-18 13:30N 29°34' W 090°34'  
2017-Nov-10 00:46N 29°34' W 090°33'2 6.2
2017-Nov-10 00:29N 29°34' W 090°35'2 4.1
2017-Nov-10 00:00N 29°35' W 090°37'0 0.1
2017-Nov-09 23:11N 29°35' W 090°37'0 0.0
2017-Nov-09 22:58N 29°35' W 090°37'0 0.6
2017-Nov-09 22:30N 29°35' W 090°37'2 4.8
2017-Nov-09 22:00N 29°36' W 090°39'  

Dump ship's entire track history